sensor_id;sensor_type;location;lat;lon;timestamp;P1;durP1;ratioP1;P2;durP2;ratioP2
37943;SDS011;23767;42.024;23.086;2023-04-25T00:00:28;5.80;;;3.97;;
37943;SDS011;23767;42.024;23.086;2023-04-25T00:02:54;6.07;;;3.75;;
37943;SDS011;23767;42.024;23.086;2023-04-25T00:05:25;6.03;;;3.58;;
37943;SDS011;23767;42.024;23.086;2023-04-25T00:07:51;7.32;;;3.67;;
37943;SDS011;23767;42.024;23.086;2023-04-25T00:10:17;5.47;;;3.60;;
37943;SDS011;23767;42.024;23.086;2023-04-25T00:12:43;5.20;;;3.85;;
37943;SDS011;23767;42.024;23.086;2023-04-25T00:15:10;6.18;;;4.10;;
37943;SDS011;23767;42.024;23.086;2023-04-25T00:17:37;5.60;;;4.10;;
37943;SDS011;23767;42.024;23.086;2023-04-25T00:20:03;6.15;;;4.03;;
37943;SDS011;23767;42.024;23.086;2023-04-25T00:22:34;5.43;;;3.80;;
37943;SDS011;23767;42.024;23.086;2023-04-25T00:25:02;8.85;;;4.90;;
37943;SDS011;23767;42.024;23.086;2023-04-25T00:27:28;5.72;;;3.80;;
37943;SDS011;23767;42.024;23.086;2023-04-25T00:29:54;6.53;;;4.55;;
37943;SDS011;23767;42.024;23.086;2023-04-25T00:32:20;6.53;;;4.65;;
37943;SDS011;23767;42.024;23.086;2023-04-25T00:34:46;6.28;;;4.47;;
37943;SDS011;23767;42.024;23.086;2023-04-25T00:37:12;6.00;;;3.63;;
37943;SDS011;23767;42.024;23.086;2023-04-25T00:39:38;4.43;;;3.00;;
37943;SDS011;23767;42.024;23.086;2023-04-25T00:42:05;5.85;;;2.53;;
37943;SDS011;23767;42.024;23.086;2023-04-25T00:44:31;5.35;;;2.67;;
37943;SDS011;23767;42.024;23.086;2023-04-25T00:46:57;4.70;;;2.40;;
37943;SDS011;23767;42.024;23.086;2023-04-25T00:49:23;4.93;;;2.88;;
37943;SDS011;23767;42.024;23.086;2023-04-25T00:51:49;4.78;;;2.60;;
37943;SDS011;23767;42.024;23.086;2023-04-25T00:54:15;4.63;;;2.85;;
37943;SDS011;23767;42.024;23.086;2023-04-25T00:56:42;3.70;;;2.30;;
37943;SDS011;23767;42.024;23.086;2023-04-25T00:59:10;7.28;;;2.67;;
37943;SDS011;23767;42.024;23.086;2023-04-25T01:01:36;4.68;;;2.47;;
37943;SDS011;23767;42.024;23.086;2023-04-25T01:04:03;3.90;;;2.50;;
37943;SDS011;23767;42.024;23.086;2023-04-25T01:06:29;3.90;;;2.33;;
37943;SDS011;23767;42.024;23.086;2023-04-25T01:08:55;4.43;;;2.70;;
37943;SDS011;23767;42.024;23.086;2023-04-25T01:11:22;3.95;;;2.30;;
37943;SDS011;23767;42.024;23.086;2023-04-25T01:13:48;4.22;;;2.58;;
37943;SDS011;23767;42.024;23.086;2023-04-25T01:16:14;4.25;;;2.67;;
37943;SDS011;23767;42.024;23.086;2023-04-25T01:18:40;4.30;;;2.60;;
37943;SDS011;23767;42.024;23.086;2023-04-25T01:21:10;3.88;;;2.20;;
37943;SDS011;23767;42.024;23.086;2023-04-25T01:23:38;4.93;;;2.60;;
37943;SDS011;23767;42.024;23.086;2023-04-25T01:26:04;4.45;;;2.63;;
37943;SDS011;23767;42.024;23.086;2023-04-25T01:28:32;4.95;;;2.50;;
37943;SDS011;23767;42.024;23.086;2023-04-25T01:30:58;4.47;;;2.85;;
37943;SDS011;23767;42.024;23.086;2023-04-25T01:33:25;4.43;;;2.58;;
37943;SDS011;23767;42.024;23.086;2023-04-25T01:35:51;6.78;;;2.47;;
37943;SDS011;23767;42.024;23.086;2023-04-25T01:38:17;5.88;;;2.65;;
37943;SDS011;23767;42.024;23.086;2023-04-25T01:40:43;4.28;;;2.38;;
37943;SDS011;23767;42.024;23.086;2023-04-25T01:43:11;5.90;;;2.40;;
37943;SDS011;23767;42.024;23.086;2023-04-25T01:45:38;4.32;;;2.40;;
37943;SDS011;23767;42.024;23.086;2023-04-25T01:48:07;3.97;;;2.30;;
37943;SDS011;23767;42.024;23.086;2023-04-25T01:50:33;4.32;;;2.60;;
37943;SDS011;23767;42.024;23.086;2023-04-25T01:52:59;3.38;;;2.00;;
37943;SDS011;23767;42.024;23.086;2023-04-25T01:55:27;3.30;;;2.10;;
37943;SDS011;23767;42.024;23.086;2023-04-25T01:57:53;4.05;;;2.10;;
37943;SDS011;23767;42.024;23.086;2023-04-25T02:00:19;3.53;;;2.30;;
37943;SDS011;23767;42.024;23.086;2023-04-25T02:02:45;4.03;;;2.03;;
37943;SDS011;23767;42.024;23.086;2023-04-25T02:05:11;4.07;;;2.30;;
37943;SDS011;23767;42.024;23.086;2023-04-25T02:07:37;4.70;;;2.45;;
37943;SDS011;23767;42.024;23.086;2023-04-25T02:10:04;4.05;;;2.38;;
37943;SDS011;23767;42.024;23.086;2023-04-25T02:12:30;3.85;;;2.17;;
37943;SDS011;23767;42.024;23.086;2023-04-25T02:14:56;4.85;;;2.20;;
37943;SDS011;23767;42.024;23.086;2023-04-25T02:17:23;3.80;;;2.33;;
37943;SDS011;23767;42.024;23.086;2023-04-25T02:19:49;3.25;;;2.05;;
37943;SDS011;23767;42.024;23.086;2023-04-25T02:22:15;4.00;;;2.30;;
37943;SDS011;23767;42.024;23.086;2023-04-25T02:24:41;4.50;;;2.40;;
37943;SDS011;23767;42.024;23.086;2023-04-25T02:27:07;4.18;;;2.53;;
37943;SDS011;23767;42.024;23.086;2023-04-25T02:29:33;3.78;;;2.22;;
37943;SDS011;23767;42.024;23.086;2023-04-25T02:31:59;6.15;;;2.55;;
37943;SDS011;23767;42.024;23.086;2023-04-25T02:34:25;3.63;;;2.10;;
37943;SDS011;23767;42.024;23.086;2023-04-25T02:36:51;4.35;;;2.33;;
37943;SDS011;23767;42.024;23.086;2023-04-25T02:39:17;4.47;;;2.47;;
37943;SDS011;23767;42.024;23.086;2023-04-25T02:41:45;4.63;;;2.55;;
37943;SDS011;23767;42.024;23.086;2023-04-25T02:44:11;3.85;;;2.55;;
37943;SDS011;23767;42.024;23.086;2023-04-25T02:46:37;4.22;;;2.60;;
37943;SDS011;23767;42.024;23.086;2023-04-25T02:49:03;9.60;;;2.72;;
37943;SDS011;23767;42.024;23.086;2023-04-25T02:51:29;4.97;;;2.22;;
37943;SDS011;23767;42.024;23.086;2023-04-25T02:53:55;4.97;;;2.40;;
37943;SDS011;23767;42.024;23.086;2023-04-25T02:56:21;4.65;;;2.70;;
37943;SDS011;23767;42.024;23.086;2023-04-25T02:58:47;4.22;;;2.40;;
37943;SDS011;23767;42.024;23.086;2023-04-25T03:01:13;3.70;;;2.53;;
37943;SDS011;23767;42.024;23.086;2023-04-25T03:03:39;3.70;;;2.10;;
37943;SDS011;23767;42.024;23.086;2023-04-25T03:06:05;6.25;;;2.75;;
37943;SDS011;23767;42.024;23.086;2023-04-25T03:08:31;4.60;;;2.83;;
37943;SDS011;23767;42.024;23.086;2023-04-25T03:10:59;4.05;;;2.67;;
37943;SDS011;23767;42.024;23.086;2023-04-25T03:13:25;5.03;;;3.03;;
37943;SDS011;23767;42.024;23.086;2023-04-25T03:15:52;5.22;;;3.42;;
37943;SDS011;23767;42.024;23.086;2023-04-25T03:18:18;6.15;;;3.70;;
37943;SDS011;23767;42.024;23.086;2023-04-25T03:20:44;6.97;;;3.50;;
37943;SDS011;23767;42.024;23.086;2023-04-25T03:23:11;4.60;;;3.30;;
37943;SDS011;23767;42.024;23.086;2023-04-25T03:25:37;5.10;;;3.25;;
37943;SDS011;23767;42.024;23.086;2023-04-25T03:28:03;6.85;;;3.50;;
37943;SDS011;23767;42.024;23.086;2023-04-25T03:30:30;4.93;;;2.85;;
37943;SDS011;23767;42.024;23.086;2023-04-25T03:32:56;4.93;;;2.97;;
37943;SDS011;23767;42.024;23.086;2023-04-25T03:35:22;4.43;;;2.88;;
37943;SDS011;23767;42.024;23.086;2023-04-25T03:37:48;4.15;;;2.72;;
37943;SDS011;23767;42.024;23.086;2023-04-25T03:40:14;7.20;;;3.13;;
37943;SDS011;23767;42.024;23.086;2023-04-25T03:42:40;5.20;;;3.47;;
37943;SDS011;23767;42.024;23.086;2023-04-25T03:45:07;4.63;;;3.22;;
37943;SDS011;23767;42.024;23.086;2023-04-25T03:47:33;4.68;;;3.38;;
37943;SDS011;23767;42.024;23.086;2023-04-25T03:49:59;4.38;;;3.15;;
37943;SDS011;23767;42.024;23.086;2023-04-25T03:52:26;7.50;;;3.35;;
37943;SDS011;23767;42.024;23.086;2023-04-25T03:54:52;6.03;;;3.35;;
37943;SDS011;23767;42.024;23.086;2023-04-25T03:57:18;5.28;;;3.40;;
37943;SDS011;23767;42.024;23.086;2023-04-25T03:59:44;5.50;;;4.18;;
37943;SDS011;23767;42.024;23.086;2023-04-25T04:02:10;6.97;;;3.90;;
37943;SDS011;23767;42.024;23.086;2023-04-25T04:04:36;7.38;;;4.03;;
37943;SDS011;23767;42.024;23.086;2023-04-25T04:07:02;7.28;;;4.30;;
37943;SDS011;23767;42.024;23.086;2023-04-25T04:09:28;6.13;;;4.05;;
37943;SDS011;23767;42.024;23.086;2023-04-25T04:11:54;4.90;;;3.42;;
37943;SDS011;23767;42.024;23.086;2023-04-25T04:14:20;6.43;;;3.83;;
37943;SDS011;23767;42.024;23.086;2023-04-25T04:16:46;5.28;;;3.80;;
37943;SDS011;23767;42.024;23.086;2023-04-25T04:19:12;7.10;;;3.63;;
37943;SDS011;23767;42.024;23.086;2023-04-25T04:21:38;5.18;;;3.60;;
37943;SDS011;23767;42.024;23.086;2023-04-25T04:24:05;6.22;;;3.83;;
37943;SDS011;23767;42.024;23.086;2023-04-25T04:26:31;8.38;;;4.28;;
37943;SDS011;23767;42.024;23.086;2023-04-25T04:28:59;6.35;;;4.25;;
37943;SDS011;23767;42.024;23.086;2023-04-25T04:31:26;5.60;;;4.40;;
37943;SDS011;23767;42.024;23.086;2023-04-25T04:33:52;9.50;;;4.60;;
37943;SDS011;23767;42.024;23.086;2023-04-25T04:36:18;5.68;;;3.95;;
37943;SDS011;23767;42.024;23.086;2023-04-25T04:38:48;8.52;;;4.88;;
37943;SDS011;23767;42.024;23.086;2023-04-25T04:41:14;6.63;;;4.22;;
37943;SDS011;23767;42.024;23.086;2023-04-25T04:43:40;6.35;;;4.38;;
37943;SDS011;23767;42.024;23.086;2023-04-25T04:46:06;5.70;;;3.65;;
37943;SDS011;23767;42.024;23.086;2023-04-25T04:48:32;6.22;;;3.40;;
37943;SDS011;23767;42.024;23.086;2023-04-25T04:50:59;5.25;;;3.30;;
37943;SDS011;23767;42.024;23.086;2023-04-25T04:53:25;8.15;;;3.58;;
37943;SDS011;23767;42.024;23.086;2023-04-25T04:55:51;8.68;;;4.45;;
37943;SDS011;23767;42.024;23.086;2023-04-25T04:58:18;11.15;;;4.70;;
37943;SDS011;23767;42.024;23.086;2023-04-25T05:03:19;10.48;;;7.40;;
37943;SDS011;23767;42.024;23.086;2023-04-25T05:05:46;8.93;;;5.88;;
37943;SDS011;23767;42.024;23.086;2023-04-25T05:08:12;8.68;;;4.65;;
37943;SDS011;23767;42.024;23.086;2023-04-25T05:10:38;8.27;;;4.53;;
37943;SDS011;23767;42.024;23.086;2023-04-25T05:13:04;7.47;;;3.83;;
37943;SDS011;23767;42.024;23.086;2023-04-25T05:15:30;8.45;;;3.92;;
37943;SDS011;23767;42.024;23.086;2023-04-25T05:17:56;7.68;;;3.95;;
37943;SDS011;23767;42.024;23.086;2023-04-25T05:20:22;6.55;;;3.80;;
37943;SDS011;23767;42.024;23.086;2023-04-25T05:22:48;7.35;;;4.10;;
37943;SDS011;23767;42.024;23.086;2023-04-25T05:25:14;6.13;;;4.32;;
37943;SDS011;23767;42.024;23.086;2023-04-25T05:27:40;7.43;;;4.30;;
37943;SDS011;23767;42.024;23.086;2023-04-25T05:30:07;9.13;;;4.55;;
37943;SDS011;23767;42.024;23.086;2023-04-25T05:32:33;6.28;;;4.55;;
37943;SDS011;23767;42.024;23.086;2023-04-25T05:35:00;8.27;;;3.80;;
37943;SDS011;23767;42.024;23.086;2023-04-25T05:37:26;8.50;;;4.22;;
37943;SDS011;23767;42.024;23.086;2023-04-25T05:39:52;15.23;;;4.22;;
37943;SDS011;23767;42.024;23.086;2023-04-25T05:42:18;8.15;;;3.63;;
37943;SDS011;23767;42.024;23.086;2023-04-25T05:44:44;8.50;;;4.07;;
37943;SDS011;23767;42.024;23.086;2023-04-25T05:47:10;6.43;;;3.72;;
37943;SDS011;23767;42.024;23.086;2023-04-25T05:49:36;7.75;;;3.20;;
37943;SDS011;23767;42.024;23.086;2023-04-25T05:52:02;5.95;;;3.10;;
37943;SDS011;23767;42.024;23.086;2023-04-25T05:54:28;7.90;;;3.03;;
37943;SDS011;23767;42.024;23.086;2023-04-25T05:56:56;6.22;;;2.83;;
37943;SDS011;23767;42.024;23.086;2023-04-25T05:59:22;8.23;;;3.70;;
37943;SDS011;23767;42.024;23.086;2023-04-25T06:01:48;6.55;;;2.90;;
37943;SDS011;23767;42.024;23.086;2023-04-25T06:04:14;6.03;;;3.47;;
37943;SDS011;23767;42.024;23.086;2023-04-25T06:06:40;5.88;;;2.75;;
37943;SDS011;23767;42.024;23.086;2023-04-25T06:09:06;6.70;;;2.72;;
37943;SDS011;23767;42.024;23.086;2023-04-25T06:11:32;3.97;;;2.35;;
37943;SDS011;23767;42.024;23.086;2023-04-25T06:13:58;7.47;;;2.50;;
37943;SDS011;23767;42.024;23.086;2023-04-25T06:16:24;10.38;;;3.10;;
37943;SDS011;23767;42.024;23.086;2023-04-25T06:18:51;9.05;;;3.22;;
37943;SDS011;23767;42.024;23.086;2023-04-25T06:21:17;8.25;;;3.15;;
37943;SDS011;23767;42.024;23.086;2023-04-25T06:23:43;11.32;;;3.67;;
37943;SDS011;23767;42.024;23.086;2023-04-25T06:26:09;8.93;;;3.40;;
37943;SDS011;23767;42.024;23.086;2023-04-25T06:28:35;10.32;;;3.75;;
37943;SDS011;23767;42.024;23.086;2023-04-25T06:31:01;9.90;;;3.35;;
37943;SDS011;23767;42.024;23.086;2023-04-25T06:33:27;6.57;;;3.13;;
37943;SDS011;23767;42.024;23.086;2023-04-25T06:35:53;6.93;;;3.42;;
37943;SDS011;23767;42.024;23.086;2023-04-25T06:38:19;10.50;;;3.53;;
37943;SDS011;23767;42.024;23.086;2023-04-25T06:40:45;9.82;;;3.70;;
37943;SDS011;23767;42.024;23.086;2023-04-25T06:43:11;9.85;;;4.53;;
37943;SDS011;23767;42.024;23.086;2023-04-25T06:45:37;7.90;;;4.20;;
37943;SDS011;23767;42.024;23.086;2023-04-25T06:48:03;7.78;;;5.30;;
37943;SDS011;23767;42.024;23.086;2023-04-25T06:50:29;6.05;;;4.30;;
37943;SDS011;23767;42.024;23.086;2023-04-25T06:52:55;11.23;;;4.93;;
37943;SDS011;23767;42.024;23.086;2023-04-25T06:55:21;6.45;;;4.50;;
37943;SDS011;23767;42.024;23.086;2023-04-25T06:57:47;8.18;;;4.63;;
37943;SDS011;23767;42.024;23.086;2023-04-25T07:00:13;8.80;;;3.88;;
37943;SDS011;23767;42.024;23.086;2023-04-25T07:02:40;8.63;;;4.57;;
37943;SDS011;23767;42.024;23.086;2023-04-25T07:05:08;6.93;;;4.07;;
37943;SDS011;23767;42.024;23.086;2023-04-25T07:07:34;9.82;;;4.10;;
37943;SDS011;23767;42.024;23.086;2023-04-25T07:10:00;7.25;;;4.25;;
37943;SDS011;23767;42.024;23.086;2023-04-25T07:12:26;7.15;;;4.10;;
37943;SDS011;23767;42.024;23.086;2023-04-25T07:14:52;9.90;;;3.90;;
37943;SDS011;23767;42.024;23.086;2023-04-25T07:17:18;5.63;;;3.78;;
37943;SDS011;23767;42.024;23.086;2023-04-25T07:19:44;7.32;;;3.35;;
37943;SDS011;23767;42.024;23.086;2023-04-25T07:22:10;4.72;;;2.90;;
37943;SDS011;23767;42.024;23.086;2023-04-25T07:24:36;6.63;;;1.95;;
37943;SDS011;23767;42.024;23.086;2023-04-25T07:27:03;6.50;;;2.00;;
37943;SDS011;23767;42.024;23.086;2023-04-25T07:29:29;4.82;;;1.90;;
37943;SDS011;23767;42.024;23.086;2023-04-25T07:31:55;6.07;;;2.08;;
37943;SDS011;23767;42.024;23.086;2023-04-25T07:34:21;5.72;;;1.83;;
37943;SDS011;23767;42.024;23.086;2023-04-25T07:36:47;3.03;;;1.45;;
37943;SDS011;23767;42.024;23.086;2023-04-25T07:39:13;3.88;;;1.50;;
37943;SDS011;23767;42.024;23.086;2023-04-25T07:41:39;4.85;;;1.80;;
37943;SDS011;23767;42.024;23.086;2023-04-25T07:44:05;4.07;;;1.90;;
37943;SDS011;23767;42.024;23.086;2023-04-25T07:46:32;4.38;;;1.90;;
37943;SDS011;23767;42.024;23.086;2023-04-25T07:48:58;4.63;;;1.60;;
37943;SDS011;23767;42.024;23.086;2023-04-25T07:51:24;4.75;;;1.88;;
37943;SDS011;23767;42.024;23.086;2023-04-25T07:53:50;5.13;;;1.80;;
37943;SDS011;23767;42.024;23.086;2023-04-25T07:56:16;4.93;;;2.05;;
37943;SDS011;23767;42.024;23.086;2023-04-25T07:58:42;3.42;;;1.40;;
37943;SDS011;23767;42.024;23.086;2023-04-25T08:01:09;3.35;;;1.60;;
37943;SDS011;23767;42.024;23.086;2023-04-25T08:03:35;3.40;;;1.50;;
37943;SDS011;23767;42.024;23.086;2023-04-25T08:06:01;2.92;;;1.50;;
37943;SDS011;23767;42.024;23.086;2023-04-25T08:08:27;3.92;;;1.50;;
37943;SDS011;23767;42.024;23.086;2023-04-25T08:10:53;3.25;;;1.67;;
37943;SDS011;23767;42.024;23.086;2023-04-25T08:13:19;2.92;;;1.40;;
37943;SDS011;23767;42.024;23.086;2023-04-25T08:15:45;4.07;;;1.40;;
37943;SDS011;23767;42.024;23.086;2023-04-25T08:18:11;2.40;;;1.20;;
37943;SDS011;23767;42.024;23.086;2023-04-25T08:20:37;2.33;;;1.20;;
37943;SDS011;23767;42.024;23.086;2023-04-25T08:23:04;4.60;;;1.40;;
37943;SDS011;23767;42.024;23.086;2023-04-25T08:25:30;3.58;;;1.20;;
37943;SDS011;23767;42.024;23.086;2023-04-25T08:27:56;3.67;;;1.85;;
37943;SDS011;23767;42.024;23.086;2023-04-25T08:30:24;2.63;;;1.08;;
37943;SDS011;23767;42.024;23.086;2023-04-25T08:32:50;2.38;;;1.20;;
37943;SDS011;23767;42.024;23.086;2023-04-25T08:35:16;2.15;;;1.20;;
37943;SDS011;23767;42.024;23.086;2023-04-25T08:37:42;3.05;;;1.40;;
37943;SDS011;23767;42.024;23.086;2023-04-25T08:40:09;3.22;;;1.48;;
37943;SDS011;23767;42.024;23.086;2023-04-25T08:42:37;4.22;;;1.40;;
37943;SDS011;23767;42.024;23.086;2023-04-25T08:45:03;6.68;;;1.30;;
37943;SDS011;23767;42.024;23.086;2023-04-25T08:47:30;3.33;;;1.25;;
37943;SDS011;23767;42.024;23.086;2023-04-25T08:49:58;2.63;;;1.30;;
37943;SDS011;23767;42.024;23.086;2023-04-25T08:52:25;5.10;;;1.40;;
37943;SDS011;23767;42.024;23.086;2023-04-25T08:54:53;4.97;;;1.33;;
37943;SDS011;23767;42.024;23.086;2023-04-25T08:57:20;3.72;;;1.33;;
37943;SDS011;23767;42.024;23.086;2023-04-25T08:59:46;2.50;;;1.23;;
37943;SDS011;23767;42.024;23.086;2023-04-25T09:02:13;2.80;;;1.13;;
37943;SDS011;23767;42.024;23.086;2023-04-25T09:04:42;2.67;;;1.30;;
37943;SDS011;23767;42.024;23.086;2023-04-25T09:07:09;4.60;;;1.45;;
37943;SDS011;23767;42.024;23.086;2023-04-25T09:09:35;2.42;;;1.10;;
37943;SDS011;23767;42.024;23.086;2023-04-25T09:12:01;2.15;;;0.98;;
37943;SDS011;23767;42.024;23.086;2023-04-25T09:14:27;3.28;;;1.20;;
37943;SDS011;23767;42.024;23.086;2023-04-25T09:19:29;1.33;;;1.00;;
37943;SDS011;23767;42.024;23.086;2023-04-25T09:21:56;3.95;;;1.20;;
37943;SDS011;23767;42.024;23.086;2023-04-25T09:26:58;3.75;;;1.35;;
37943;SDS011;23767;42.024;23.086;2023-04-25T09:29:30;3.78;;;1.15;;
37943;SDS011;23767;42.024;23.086;2023-04-25T09:34:41;2.72;;;0.90;;
37943;SDS011;23767;42.024;23.086;2023-04-25T09:37:08;7.40;;;1.85;;
37943;SDS011;23767;42.024;23.086;2023-04-25T09:39:36;2.60;;;0.98;;
37943;SDS011;23767;42.024;23.086;2023-04-25T09:42:02;2.95;;;1.40;;
37943;SDS011;23767;42.024;23.086;2023-04-25T09:44:28;3.10;;;1.20;;
37943;SDS011;23767;42.024;23.086;2023-04-25T09:46:54;2.47;;;0.90;;
37943;SDS011;23767;42.024;23.086;2023-04-25T09:49:20;2.00;;;0.95;;
37943;SDS011;23767;42.024;23.086;2023-04-25T09:51:59;4.90;;;1.25;;
37943;SDS011;23767;42.024;23.086;2023-04-25T09:54:25;3.78;;;1.20;;
37943;SDS011;23767;42.024;23.086;2023-04-25T09:56:52;3.03;;;1.10;;
37943;SDS011;23767;42.024;23.086;2023-04-25T09:59:21;2.78;;;1.10;;
37943;SDS011;23767;42.024;23.086;2023-04-25T10:01:48;4.60;;;1.20;;
37943;SDS011;23767;42.024;23.086;2023-04-25T10:04:16;1.48;;;0.82;;
37943;SDS011;23767;42.024;23.086;2023-04-25T10:06:45;3.22;;;1.15;;
37943;SDS011;23767;42.024;23.086;2023-04-25T10:09:12;3.50;;;1.10;;
37943;SDS011;23767;42.024;23.086;2023-04-25T10:11:39;7.30;;;1.05;;
37943;SDS011;23767;42.024;23.086;2023-04-25T10:14:05;1.08;;;0.70;;
37943;SDS011;23767;42.024;23.086;2023-04-25T10:16:31;2.55;;;0.90;;
37943;SDS011;23767;42.024;23.086;2023-04-25T10:18:58;8.55;;;1.70;;
37943;SDS011;23767;42.024;23.086;2023-04-25T10:21:24;1.75;;;0.80;;
37943;SDS011;23767;42.024;23.086;2023-04-25T10:23:51;4.32;;;1.02;;
37943;SDS011;23767;42.024;23.086;2023-04-25T10:26:18;2.75;;;1.20;;
37943;SDS011;23767;42.024;23.086;2023-04-25T10:29:00;1.58;;;0.98;;
37943;SDS011;23767;42.024;23.086;2023-04-25T10:33:53;2.30;;;0.90;;
37943;SDS011;23767;42.024;23.086;2023-04-25T10:36:20;1.73;;;0.90;;
37943;SDS011;23767;42.024;23.086;2023-04-25T10:38:46;1.63;;;0.93;;
37943;SDS011;23767;42.024;23.086;2023-04-25T10:41:13;2.45;;;1.10;;
37943;SDS011;23767;42.024;23.086;2023-04-25T10:43:43;2.45;;;1.00;;
37943;SDS011;23767;42.024;23.086;2023-04-25T10:46:28;1.60;;;0.90;;
37943;SDS011;23767;42.024;23.086;2023-04-25T10:48:59;1.92;;;0.80;;
37943;SDS011;23767;42.024;23.086;2023-04-25T10:51:32;1.67;;;0.75;;
37943;SDS011;23767;42.024;23.086;2023-04-25T10:56:25;2.65;;;0.85;;
37943;SDS011;23767;42.024;23.086;2023-04-25T10:58:51;2.28;;;0.95;;
37943;SDS011;23767;42.024;23.086;2023-04-25T11:01:21;1.15;;;0.77;;
37943;SDS011;23767;42.024;23.086;2023-04-25T11:03:47;1.75;;;0.90;;
37943;SDS011;23767;42.024;23.086;2023-04-25T11:06:20;1.70;;;0.80;;
37943;SDS011;23767;42.024;23.086;2023-04-25T11:08:48;1.65;;;0.98;;
37943;SDS011;23767;42.024;23.086;2023-04-25T11:11:15;2.00;;;0.80;;
37943;SDS011;23767;42.024;23.086;2023-04-25T11:13:41;1.83;;;0.80;;
37943;SDS011;23767;42.024;23.086;2023-04-25T11:16:07;2.88;;;0.80;;
37943;SDS011;23767;42.024;23.086;2023-04-25T11:18:33;0.95;;;0.73;;
37943;SDS011;23767;42.024;23.086;2023-04-25T11:21:00;0.93;;;0.70;;
37943;SDS011;23767;42.024;23.086;2023-04-25T11:23:26;2.78;;;0.90;;
37943;SDS011;23767;42.024;23.086;2023-04-25T11:25:52;1.58;;;0.82;;
37943;SDS011;23767;42.024;23.086;2023-04-25T11:28:21;2.55;;;0.75;;
37943;SDS011;23767;42.024;23.086;2023-04-25T11:30:51;0.98;;;0.73;;
37943;SDS011;23767;42.024;23.086;2023-04-25T11:33:18;1.20;;;0.77;;
37943;SDS011;23767;42.024;23.086;2023-04-25T11:35:44;2.30;;;0.85;;
37943;SDS011;23767;42.024;23.086;2023-04-25T11:38:10;2.78;;;1.08;;
37943;SDS011;23767;42.024;23.086;2023-04-25T11:40:36;2.35;;;0.95;;
37943;SDS011;23767;42.024;23.086;2023-04-25T11:43:02;2.53;;;0.90;;
37943;SDS011;23767;42.024;23.086;2023-04-25T11:45:28;0.95;;;0.63;;
37943;SDS011;23767;42.024;23.086;2023-04-25T11:47:56;2.00;;;0.88;;
37943;SDS011;23767;42.024;23.086;2023-04-25T11:50:22;2.05;;;0.80;;
37943;SDS011;23767;42.024;23.086;2023-04-25T11:52:48;1.50;;;0.73;;
37943;SDS011;23767;42.024;23.086;2023-04-25T11:55:19;2.05;;;0.80;;
37943;SDS011;23767;42.024;23.086;2023-04-25T11:57:45;1.27;;;0.70;;
37943;SDS011;23767;42.024;23.086;2023-04-25T12:00:13;4.10;;;1.00;;
37943;SDS011;23767;42.024;23.086;2023-04-25T12:02:42;2.75;;;0.90;;
37943;SDS011;23767;42.024;23.086;2023-04-25T12:05:08;3.15;;;0.80;;
37943;SDS011;23767;42.024;23.086;2023-04-25T12:07:35;6.93;;;1.10;;
37943;SDS011;23767;42.024;23.086;2023-04-25T12:10:05;4.75;;;1.00;;
37943;SDS011;23767;42.024;23.086;2023-04-25T12:12:32;2.95;;;0.90;;
37943;SDS011;23767;42.024;23.086;2023-04-25T12:15:08;1.90;;;0.73;;
37943;SDS011;23767;42.024;23.086;2023-04-25T12:17:35;3.22;;;1.10;;
37943;SDS011;23767;42.024;23.086;2023-04-25T12:20:09;2.38;;;1.10;;
37943;SDS011;23767;42.024;23.086;2023-04-25T12:22:36;2.83;;;1.10;;
37943;SDS011;23767;42.024;23.086;2023-04-25T12:25:02;7.63;;;1.10;;
37943;SDS011;23767;42.024;23.086;2023-04-25T12:27:30;2.25;;;0.90;;
37943;SDS011;23767;42.024;23.086;2023-04-25T12:29:57;1.35;;;1.00;;
37943;SDS011;23767;42.024;23.086;2023-04-25T12:32:23;2.13;;;1.00;;
37943;SDS011;23767;42.024;23.086;2023-04-25T12:34:50;1.35;;;0.90;;
37943;SDS011;23767;42.024;23.086;2023-04-25T12:37:16;2.13;;;0.95;;
37943;SDS011;23767;42.024;23.086;2023-04-25T12:39:42;2.22;;;0.88;;
37943;SDS011;23767;42.024;23.086;2023-04-25T12:42:08;4.10;;;1.10;;
37943;SDS011;23767;42.024;23.086;2023-04-25T12:44:36;3.40;;;1.00;;
37943;SDS011;23767;42.024;23.086;2023-04-25T12:47:03;3.38;;;1.30;;
37943;SDS011;23767;42.024;23.086;2023-04-25T12:49:29;2.50;;;1.20;;
37943;SDS011;23767;42.024;23.086;2023-04-25T12:51:55;3.50;;;0.98;;
37943;SDS011;23767;42.024;23.086;2023-04-25T12:54:21;2.40;;;1.00;;
37943;SDS011;23767;42.024;23.086;2023-04-25T12:56:47;3.47;;;1.10;;
37943;SDS011;23767;42.024;23.086;2023-04-25T12:59:15;2.75;;;1.20;;
37943;SDS011;23767;42.024;23.086;2023-04-25T13:01:41;3.05;;;1.17;;
37943;SDS011;23767;42.024;23.086;2023-04-25T13:04:07;2.65;;;1.10;;
37943;SDS011;23767;42.024;23.086;2023-04-25T13:06:33;4.55;;;1.10;;
37943;SDS011;23767;42.024;23.086;2023-04-25T13:08:59;2.40;;;1.10;;
37943;SDS011;23767;42.024;23.086;2023-04-25T13:11:26;2.83;;;1.20;;
37943;SDS011;23767;42.024;23.086;2023-04-25T13:13:52;2.97;;;0.90;;
37943;SDS011;23767;42.024;23.086;2023-04-25T13:16:18;2.25;;;1.30;;
37943;SDS011;23767;42.024;23.086;2023-04-25T13:18:45;1.85;;;1.00;;
37943;SDS011;23767;42.024;23.086;2023-04-25T13:21:11;3.88;;;1.40;;
37943;SDS011;23767;42.024;23.086;2023-04-25T13:23:37;2.35;;;1.08;;
37943;SDS011;23767;42.024;23.086;2023-04-25T13:26:04;3.55;;;1.30;;
37943;SDS011;23767;42.024;23.086;2023-04-25T13:28:30;5.07;;;2.92;;
37943;SDS011;23767;42.024;23.086;2023-04-25T13:30:56;3.40;;;1.15;;
37943;SDS011;23767;42.024;23.086;2023-04-25T13:33:22;2.90;;;1.30;;
37943;SDS011;23767;42.024;23.086;2023-04-25T13:35:49;3.50;;;1.55;;
37943;SDS011;23767;42.024;23.086;2023-04-25T13:38:23;3.05;;;1.40;;
37943;SDS011;23767;42.024;23.086;2023-04-25T13:40:50;5.20;;;1.48;;
37943;SDS011;23767;42.024;23.086;2023-04-25T13:43:20;4.25;;;1.40;;
37943;SDS011;23767;42.024;23.086;2023-04-25T13:45:49;2.60;;;1.30;;
37943;SDS011;23767;42.024;23.086;2023-04-25T13:48:16;2.28;;;1.20;;
37943;SDS011;23767;42.024;23.086;2023-04-25T13:50:42;2.25;;;1.10;;
37943;SDS011;23767;42.024;23.086;2023-04-25T13:53:08;3.75;;;1.42;;
37943;SDS011;23767;42.024;23.086;2023-04-25T13:55:34;2.80;;;1.30;;
37943;SDS011;23767;42.024;23.086;2023-04-25T13:58:01;3.22;;;1.30;;
37943;SDS011;23767;42.024;23.086;2023-04-25T14:00:32;1.85;;;1.00;;
37943;SDS011;23767;42.024;23.086;2023-04-25T14:02:58;2.42;;;1.23;;
37943;SDS011;23767;42.024;23.086;2023-04-25T14:05:24;4.03;;;1.33;;
37943;SDS011;23767;42.024;23.086;2023-04-25T14:07:50;3.25;;;1.40;;
37943;SDS011;23767;42.024;23.086;2023-04-25T14:10:16;3.45;;;1.60;;
37943;SDS011;23767;42.024;23.086;2023-04-25T14:12:42;2.67;;;1.50;;
37943;SDS011;23767;42.024;23.086;2023-04-25T14:15:08;3.45;;;1.60;;
37943;SDS011;23767;42.024;23.086;2023-04-25T14:17:35;4.03;;;1.42;;
37943;SDS011;23767;42.024;23.086;2023-04-25T14:20:02;4.03;;;1.80;;
37943;SDS011;23767;42.024;23.086;2023-04-25T14:22:30;4.10;;;2.00;;
37943;SDS011;23767;42.024;23.086;2023-04-25T14:24:56;2.92;;;1.30;;
37943;SDS011;23767;42.024;23.086;2023-04-25T14:27:23;4.35;;;1.30;;
37943;SDS011;23767;42.024;23.086;2023-04-25T14:29:49;3.35;;;1.40;;
37943;SDS011;23767;42.024;23.086;2023-04-25T14:32:15;2.80;;;1.45;;
37943;SDS011;23767;42.024;23.086;2023-04-25T14:34:41;3.65;;;1.60;;
37943;SDS011;23767;42.024;23.086;2023-04-25T14:37:07;4.88;;;1.63;;
37943;SDS011;23767;42.024;23.086;2023-04-25T14:39:33;4.85;;;1.75;;
37943;SDS011;23767;42.024;23.086;2023-04-25T14:41:59;6.13;;;1.63;;
37943;SDS011;23767;42.024;23.086;2023-04-25T14:44:25;4.13;;;1.40;;